createdAt,value
2022-12-03T00:00:23.780Z,64.40
2022-12-03T00:01:23.782Z,63.10
2022-12-03T00:02:23.817Z,70.30
2022-12-03T00:03:23.982Z,67.80
2022-12-03T00:04:23.742Z,62.70
2022-12-03T00:05:23.757Z,64.20
2022-12-03T00:06:23.699Z,65.80
2022-12-03T00:07:23.784Z,65.80
2022-12-03T00:08:23.698Z,62.80
2022-12-03T00:09:23.670Z,62.10
2022-12-03T00:10:23.749Z,65.00
2022-12-03T00:11:23.669Z,75.50
2022-12-03T00:12:23.601Z,66.00
2022-12-03T00:13:23.649Z,62.90
2022-12-03T00:14:23.620Z,68.30
2022-12-03T00:15:23.585Z,69.90
2022-12-03T00:16:23.730Z,72.40
2022-12-03T00:17:23.599Z,72.30
2022-12-03T00:18:23.563Z,69.80
2022-12-03T00:19:23.534Z,72.50
2022-12-03T00:20:23.531Z,64.50
2022-12-03T00:21:24.795Z,61.80
2022-12-03T00:22:23.504Z,74.30
2022-12-03T00:23:23.515Z,73.20
2022-12-03T00:24:23.447Z,68.10
2022-12-03T00:25:23.482Z,66.10
2022-12-03T00:26:23.445Z,68.40
2022-12-03T00:27:23.438Z,78.80
2022-12-03T00:28:23.452Z,72.90
2022-12-03T00:29:23.406Z,69.50
2022-12-03T00:30:23.364Z,71.10
2022-12-03T00:31:23.645Z,66.70
2022-12-03T00:32:23.339Z,62.90
2022-12-03T00:33:23.393Z,74.90
2022-12-03T00:34:23.467Z,78.80
2022-12-03T00:35:23.365Z,67.80
2022-12-03T00:36:23.309Z,70.60
2022-12-03T00:37:23.343Z,66.90
2022-12-03T00:38:23.296Z,65.80
2022-12-03T00:39:23.279Z,76.80
2022-12-03T00:40:23.398Z,81.10
2022-12-03T00:41:23.270Z,77.40
2022-12-03T00:42:23.219Z,74.10
2022-12-03T00:43:23.260Z,73.10
2022-12-03T00:44:23.188Z,72.40
2022-12-03T00:45:23.248Z,71.40
2022-12-03T00:46:23.493Z,82.80
2022-12-03T00:47:23.176Z,78.60
2022-12-03T00:48:23.148Z,73.10
2022-12-03T00:49:23.184Z,74.70
2022-12-03T00:50:23.129Z,72.50
2022-12-03T00:51:23.133Z,77.80
2022-12-03T00:52:23.232Z,77.80
2022-12-03T00:53:23.089Z,75.30
2022-12-03T00:54:28.329Z,82.50
2022-12-03T00:55:24.116Z,73.10
2022-12-03T00:56:23.034Z,76.20
2022-12-03T00:57:23.066Z,71.50
2022-12-03T00:58:23.059Z,66.60
2022-12-03T00:59:23.012Z,88.60
2022-12-03T01:00:22.998Z,84.90
2022-12-03T01:01:23.064Z,80.10
2022-12-03T01:02:22.997Z,86.00
2022-12-03T01:03:22.990Z,85.60
2022-12-03T01:04:23.133Z,86.60
2022-12-03T01:05:22.934Z,90.10
2022-12-03T01:06:22.923Z,86.40
2022-12-03T01:07:22.945Z,88.50
2022-12-03T01:08:22.864Z,95.50
2022-12-03T01:09:22.911Z,100.10
2022-12-03T01:10:22.911Z,93.70
2022-12-03T01:11:22.864Z,87.20
2022-12-03T01:12:22.849Z,82.90
2022-12-03T01:13:22.845Z,83.40
2022-12-03T01:14:22.806Z,79.80
2022-12-03T01:15:22.832Z,86.80
2022-12-03T01:16:22.927Z,93.60
2022-12-03T01:17:22.802Z,84.30
2022-12-03T01:18:22.775Z,91.30
2022-12-03T01:19:22.766Z,86.80
2022-12-03T01:20:22.708Z,71.40
2022-12-03T01:21:22.750Z,91.70
2022-12-03T01:22:22.732Z,82.50
2022-12-03T01:23:22.715Z,92.20
2022-12-03T01:24:22.685Z,91.40
2022-12-03T01:25:22.671Z,84.50
2022-12-03T01:26:22.647Z,99.50
2022-12-03T01:27:22.685Z,91.60
2022-12-03T01:28:22.650Z,100.60
2022-12-03T01:29:22.643Z,90.70
2022-12-03T01:30:22.616Z,92.10
2022-12-03T01:31:22.677Z,97.10
2022-12-03T01:32:22.586Z,100.20
2022-12-03T01:33:22.569Z,97.70
2022-12-03T01:34:22.549Z,100.40
2022-12-03T01:35:22.571Z,92.00
2022-12-03T01:36:22.500Z,92.00
2022-12-03T01:37:22.560Z,92.60
2022-12-03T01:38:22.507Z,91.70
2022-12-03T01:39:22.503Z,92.90
2022-12-03T01:40:22.546Z,94.10
2022-12-03T01:41:22.468Z,97.80
2022-12-03T01:42:22.430Z,103.90
2022-12-03T01:43:22.482Z,102.50
2022-12-03T01:44:22.405Z,103.90
2022-12-03T01:45:22.462Z,104.00
2022-12-03T01:46:22.498Z,108.80
2022-12-03T01:47:22.392Z,101.50
2022-12-03T01:48:22.386Z,99.20
2022-12-03T01:49:22.363Z,98.50
2022-12-03T01:50:22.322Z,97.70
2022-12-03T01:51:22.359Z,106.60
2022-12-03T01:52:22.444Z,110.40
2022-12-03T01:53:22.310Z,105.50
2022-12-03T01:54:22.263Z,96.50
2022-12-03T01:55:22.328Z,97.10
2022-12-03T01:56:22.257Z,100.40
2022-12-03T01:57:22.299Z,96.50
2022-12-03T01:58:22.371Z,117.90
2022-12-03T01:59:22.267Z,98.10
2022-12-03T02:00:22.212Z,104.50
2022-12-03T02:01:22.300Z,102.70
2022-12-03T02:02:22.186Z,96.90
2022-12-03T02:03:22.221Z,109.80
2022-12-03T02:04:22.322Z,114.90
2022-12-03T02:05:22.173Z,108.60
2022-12-03T02:06:22.151Z,105.60
2022-12-03T02:07:22.136Z,116.60
2022-12-03T02:08:22.122Z,114.70
2022-12-03T02:09:22.129Z,111.80
2022-12-03T02:10:22.137Z,127.50
2022-12-03T02:11:22.078Z,128.90
2022-12-03T02:12:22.095Z,122.70
2022-12-03T02:13:22.061Z,126.40
2022-12-03T02:14:22.017Z,136.50
2022-12-03T02:15:22.088Z,142.80
2022-12-03T02:16:22.096Z,134.60
2022-12-03T02:17:22.023Z,141.20
2022-12-03T02:18:21.982Z,138.60
2022-12-03T02:19:21.959Z,114.40
2022-12-03T02:20:21.955Z,149.30
2022-12-03T02:21:21.939Z,134.00
2022-12-03T02:22:22.019Z,123.60
2022-12-03T02:23:21.944Z,144.50
2022-12-03T02:24:21.938Z,133.70
2022-12-03T02:25:21.899Z,136.20
2022-12-03T02:26:21.854Z,142.20
2022-12-03T02:27:21.896Z,137.60
2022-12-03T02:28:21.875Z,135.00
2022-12-03T02:29:21.887Z,134.30
2022-12-03T02:30:21.826Z,102.00
2022-12-03T02:31:21.870Z,139.80
2022-12-03T02:32:21.862Z,133.90
2022-12-03T02:33:21.808Z,118.70
2022-12-03T02:34:21.777Z,139.90
2022-12-03T02:35:21.789Z,145.00
2022-12-03T02:36:21.719Z,100.30
2022-12-03T02:37:21.757Z,148.00
2022-12-03T02:38:21.721Z,148.40
2022-12-03T02:39:21.723Z,152.10
2022-12-03T02:40:21.832Z,151.00
2022-12-03T02:41:21.704Z,167.40
2022-12-03T02:42:21.661Z,171.60
2022-12-03T02:43:21.686Z,132.00
2022-12-03T02:44:21.639Z,168.90
2022-12-03T02:45:21.659Z,156.60
2022-12-03T02:46:21.715Z,155.60
2022-12-03T02:47:21.625Z,161.70
2022-12-03T02:48:21.605Z,158.00
2022-12-03T02:49:21.580Z,146.80
2022-12-03T02:50:21.536Z,156.60
2022-12-03T02:51:21.593Z,156.40
2022-12-03T02:52:21.535Z,173.60
2022-12-03T02:53:21.587Z,144.80
2022-12-03T02:54:21.524Z,181.30
2022-12-03T02:55:21.499Z,164.60
2022-12-03T02:56:21.455Z,173.30
2022-12-03T02:57:21.518Z,170.90
2022-12-03T02:58:21.484Z,169.00
2022-12-03T02:59:21.476Z,172.20
2022-12-03T03:00:21.443Z,153.00
2022-12-03T03:01:21.523Z,158.60
2022-12-03T03:02:21.452Z,151.20
2022-12-03T03:03:21.412Z,149.20
2022-12-03T03:04:21.401Z,158.00
2022-12-03T03:05:21.394Z,148.50
2022-12-03T03:06:21.353Z,146.10
2022-12-03T03:07:21.338Z,153.50
2022-12-03T03:08:21.325Z,155.60
2022-12-03T03:09:21.317Z,160.80
2022-12-03T03:10:21.318Z,159.30
2022-12-03T03:11:21.333Z,154.40
2022-12-03T03:12:21.293Z,150.00
2022-12-03T03:13:21.298Z,145.50
2022-12-03T03:14:21.238Z,152.40
2022-12-03T03:15:21.277Z,116.80
2022-12-03T03:16:21.262Z,163.60
2022-12-03T03:17:21.236Z,156.20
2022-12-03T03:18:21.196Z,155.50
2022-12-03T03:19:21.179Z,146.40
2022-12-03T03:20:21.187Z,147.00
2022-12-03T03:21:21.152Z,149.70
2022-12-03T03:22:21.150Z,156.10
2022-12-03T03:23:21.157Z,136.50
2022-12-03T03:24:21.092Z,159.80
2022-12-03T03:25:21.154Z,162.20
2022-12-03T03:26:21.094Z,161.30
2022-12-03T03:27:21.080Z,153.40
2022-12-03T03:28:21.169Z,162.50
2022-12-03T03:29:21.078Z,165.50
2022-12-03T03:30:21.041Z,158.80
2022-12-03T03:31:21.099Z,166.90
2022-12-03T03:32:21.019Z,173.40
2022-12-03T03:33:21.001Z,159.30
2022-12-03T03:34:21.073Z,151.90
2022-12-03T03:35:21.019Z,171.00
2022-12-03T03:36:20.929Z,159.60
2022-12-03T03:37:20.978Z,145.40
2022-12-03T03:38:20.943Z,149.50
2022-12-03T03:39:20.934Z,153.00
2022-12-03T03:40:20.940Z,159.00
2022-12-03T03:41:20.908Z,126.30
2022-12-03T03:42:20.867Z,160.00
2022-12-03T03:43:20.913Z,170.00
2022-12-03T03:44:20.891Z,158.50
2022-12-03T03:45:25.705Z,146.50
2022-12-03T03:46:21.927Z,148.70
2022-12-03T03:47:20.821Z,149.50
2022-12-03T03:48:20.805Z,148.90
2022-12-03T03:49:20.793Z,159.10
2022-12-03T03:50:20.812Z,168.20
2022-12-03T03:51:20.745Z,144.50
2022-12-03T03:52:20.805Z,151.50
2022-12-03T03:53:20.729Z,157.90
2022-12-03T03:54:20.726Z,155.20
2022-12-03T03:55:20.715Z,155.20
2022-12-03T03:56:20.708Z,169.90
2022-12-03T03:57:20.683Z,169.50
2022-12-03T03:58:20.735Z,164.10
2022-12-03T03:59:20.654Z,154.40
2022-12-03T04:00:20.656Z,162.60
2022-12-03T04:01:20.712Z,153.40
2022-12-03T04:02:20.653Z,157.90
2022-12-03T04:03:20.599Z,149.80
2022-12-03T04:04:20.808Z,169.40
2022-12-03T04:05:20.555Z,136.40
2022-12-03T04:06:20.585Z,138.00
2022-12-03T04:07:20.566Z,140.40
2022-12-03T04:08:20.548Z,140.30
2022-12-03T04:09:20.537Z,118.90
2022-12-03T04:10:20.667Z,142.10
2022-12-03T04:11:20.470Z,129.80
2022-12-03T04:12:20.527Z,140.30
2022-12-03T04:13:20.450Z,119.90
2022-12-03T04:14:20.478Z,133.50
2022-12-03T04:15:20.467Z,145.10
2022-12-03T04:16:20.559Z,125.10
2022-12-03T04:17:20.410Z,151.00
2022-12-03T04:18:20.413Z,161.90
2022-12-03T04:19:20.397Z,159.00
2022-12-03T04:20:20.380Z,141.20
2022-12-03T04:21:20.368Z,142.00
2022-12-03T04:22:20.452Z,156.30
2022-12-03T04:23:20.336Z,138.00
2022-12-03T04:24:20.367Z,154.40
2022-12-03T04:25:20.294Z,167.00
2022-12-03T04:26:20.305Z,161.60
2022-12-03T04:27:20.299Z,149.90
2022-12-03T04:28:20.398Z,160.50
2022-12-03T04:29:20.280Z,167.00
2022-12-03T04:30:20.286Z,133.40
2022-12-03T04:31:20.312Z,162.70
2022-12-03T04:32:20.242Z,173.00
2022-12-03T04:33:20.227Z,174.90
2022-12-03T04:34:20.350Z,175.50
2022-12-03T04:35:20.282Z,180.80
2022-12-03T04:36:20.207Z,171.00
2022-12-03T04:37:20.143Z,158.30
2022-12-03T04:38:20.164Z,182.60
2022-12-03T04:39:20.131Z,161.70
2022-12-03T04:40:20.146Z,169.90
2022-12-03T04:41:20.121Z,181.40
2022-12-03T04:42:20.144Z,156.60
2022-12-03T04:43:20.055Z,186.50
2022-12-03T04:44:20.113Z,187.90
2022-12-03T04:45:20.026Z,179.50
2022-12-03T04:46:20.226Z,179.80
2022-12-03T04:47:20.035Z,182.70
2022-12-03T04:48:20.027Z,148.40
2022-12-03T04:49:20.004Z,199.50
2022-12-03T04:50:20.036Z,194.30
2022-12-03T04:51:19.982Z,197.30
2022-12-03T04:52:20.044Z,168.10
2022-12-03T04:53:19.946Z,179.40
2022-12-03T04:54:19.963Z,183.20
2022-12-03T04:55:19.934Z,199.20
2022-12-03T04:56:19.917Z,190.70
2022-12-03T04:57:19.895Z,191.00
2022-12-03T04:58:19.965Z,197.50
2022-12-03T04:59:19.848Z,197.30
2022-12-03T05:00:19.896Z,189.90
2022-12-03T05:01:19.929Z,176.60
2022-12-03T05:02:19.896Z,191.50
2022-12-03T05:03:19.835Z,202.30
2022-12-03T05:04:19.879Z,171.90
2022-12-03T05:05:19.770Z,191.10
2022-12-03T05:06:19.796Z,200.70
2022-12-03T05:07:19.769Z,202.00
2022-12-03T05:08:19.817Z,207.60
2022-12-03T05:09:19.750Z,191.10
2022-12-03T05:10:19.806Z,201.60
2022-12-03T05:11:19.691Z,199.50
2022-12-03T05:12:19.763Z,181.60
2022-12-03T05:13:19.679Z,206.70
2022-12-03T05:14:19.700Z,202.90
2022-12-03T05:15:19.668Z,212.60
2022-12-03T05:16:19.805Z,192.80
2022-12-03T05:17:19.656Z,195.60
2022-12-03T05:18:19.679Z,208.40
2022-12-03T05:19:19.605Z,193.30
2022-12-03T05:20:19.604Z,197.00
2022-12-03T05:21:19.601Z,209.90
2022-12-03T05:22:19.728Z,206.10
2022-12-03T05:23:19.553Z,185.40
2022-12-03T05:24:19.594Z,196.90
2022-12-03T05:25:19.523Z,206.10
2022-12-03T05:26:19.524Z,208.30
2022-12-03T05:27:23.701Z,166.70
2022-12-03T05:28:19.760Z,200.90
2022-12-03T05:29:19.499Z,213.60
2022-12-03T05:30:19.511Z,211.30
2022-12-03T05:31:19.510Z,198.20
2022-12-03T05:32:19.496Z,203.20
2022-12-03T05:33:19.431Z,218.10
2022-12-03T05:34:19.554Z,172.20
2022-12-03T05:35:19.422Z,215.90
2022-12-03T05:36:19.432Z,211.50
2022-12-03T05:37:19.355Z,217.60
2022-12-03T05:38:19.387Z,206.10
2022-12-03T05:39:19.373Z,212.00
2022-12-03T05:40:19.385Z,211.60
2022-12-03T05:41:19.344Z,222.90
2022-12-03T05:42:19.350Z,187.40
2022-12-03T05:43:19.289Z,234.80
2022-12-03T05:44:20.804Z,231.90
2022-12-03T05:45:19.259Z,221.00
2022-12-03T05:46:19.447Z,206.60
2022-12-03T05:47:19.274Z,212.80
2022-12-03T05:48:19.259Z,219.00
2022-12-03T05:49:19.244Z,184.80
2022-12-03T05:50:19.237Z,217.00
2022-12-03T05:51:19.168Z,214.40
2022-12-03T05:52:19.256Z,207.60
2022-12-03T05:53:19.160Z,191.40
2022-12-03T05:54:19.181Z,183.70
2022-12-03T05:55:19.155Z,189.80
2022-12-03T05:56:19.150Z,192.00
2022-12-03T05:57:19.124Z,170.70
2022-12-03T05:58:19.276Z,198.50
2022-12-03T05:59:19.088Z,203.90
2022-12-03T06:00:19.125Z,189.40
2022-12-03T06:01:19.050Z,178.80
2022-12-03T06:02:19.317Z,165.40
2022-12-03T06:03:19.273Z,178.20
2022-12-03T06:04:19.060Z,185.90
2022-12-03T06:05:19.028Z,186.50
2022-12-03T06:06:19.048Z,187.30
2022-12-03T06:07:18.980Z,156.30
2022-12-03T06:08:19.029Z,166.50
2022-12-03T06:09:18.978Z,153.30
2022-12-03T06:10:19.101Z,156.50
2022-12-03T06:11:18.922Z,143.90
2022-12-03T06:12:18.959Z,138.60
2022-12-03T06:13:18.884Z,143.60
2022-12-03T06:14:18.914Z,151.60
2022-12-03T06:15:18.905Z,136.80
2022-12-03T06:16:18.940Z,124.40
2022-12-03T06:17:18.871Z,138.70
2022-12-03T06:18:18.890Z,124.60
2022-12-03T06:19:18.817Z,141.00
2022-12-03T06:20:18.851Z,122.90
2022-12-03T06:21:18.827Z,123.80
2022-12-03T06:22:18.814Z,129.10
2022-12-03T06:23:18.801Z,117.30
2022-12-03T06:24:18.814Z,121.30
2022-12-03T06:25:18.744Z,121.20
2022-12-03T06:26:18.755Z,100.10
2022-12-03T06:27:18.750Z,123.30
2022-12-03T06:28:18.778Z,129.40
2022-12-03T06:29:18.712Z,100.00
2022-12-03T06:30:18.732Z,111.60
2022-12-03T06:31:18.721Z,95.00
2022-12-03T06:32:18.703Z,92.80
2022-12-03T06:33:18.637Z,90.50
2022-12-03T06:34:18.706Z,79.10
2022-12-03T06:35:18.634Z,86.80
2022-12-03T06:36:22.723Z,85.70
2022-12-03T06:37:18.602Z,94.50
2022-12-03T06:38:18.613Z,80.40
2022-12-03T06:39:18.556Z,71.80
2022-12-03T06:40:18.608Z,78.50
2022-12-03T06:41:18.565Z,78.40
2022-12-03T06:42:18.573Z,70.40
2022-12-03T06:43:18.505Z,73.70
2022-12-03T06:44:18.544Z,72.20
2022-12-03T06:45:18.501Z,73.60
2022-12-03T06:46:18.580Z,77.10
2022-12-03T06:47:18.487Z,64.10
2022-12-03T06:48:18.470Z,68.70
2022-12-03T06:49:18.456Z,70.90
2022-12-03T06:50:18.465Z,65.10
2022-12-03T06:51:18.401Z,73.70
2022-12-03T06:52:18.475Z,71.90
2022-12-03T06:53:18.383Z,62.80
2022-12-03T06:54:18.398Z,67.40
2022-12-03T06:55:18.384Z,71.80
2022-12-03T06:56:22.119Z,73.20
2022-12-03T06:57:18.347Z,64.00
2022-12-03T06:58:18.490Z,77.50
2022-12-03T06:59:18.302Z,75.10
2022-12-03T07:00:18.337Z,72.90
2022-12-03T07:01:18.361Z,71.80
2022-12-03T07:02:18.291Z,76.50
2022-12-03T07:03:18.300Z,74.00
2022-12-03T07:04:18.382Z,77.30
2022-12-03T07:05:18.251Z,74.40
2022-12-03T07:06:18.263Z,78.60
2022-12-03T07:07:18.192Z,70.10
2022-12-03T07:08:18.291Z,68.70
2022-12-03T07:09:18.172Z,70.60
2022-12-03T07:10:18.316Z,75.00
2022-12-03T07:11:18.171Z,80.10
2022-12-03T07:12:18.189Z,76.40
2022-12-03T07:13:18.131Z,71.60
2022-12-03T07:14:18.140Z,76.60
2022-12-03T07:15:18.118Z,81.20
2022-12-03T07:16:27.236Z,84.20
2022-12-03T07:17:18.097Z,84.60
2022-12-03T07:18:18.102Z,84.90
2022-12-03T07:19:18.042Z,81.10
2022-12-03T07:20:18.074Z,90.30
2022-12-03T07:21:18.025Z,86.60
2022-12-03T07:22:18.145Z,82.60
2022-12-03T07:23:18.013Z,87.00
2022-12-03T07:24:18.004Z,88.30
2022-12-03T07:25:22.835Z,92.50
2022-12-03T07:26:19.001Z,92.50
2022-12-03T07:27:17.937Z,95.40
2022-12-03T07:28:18.057Z,101.70
2022-12-03T07:29:17.953Z,96.50
2022-12-03T07:30:17.949Z,93.50
2022-12-03T07:31:17.932Z,91.20
2022-12-03T07:32:17.928Z,103.10
2022-12-03T07:33:17.886Z,99.10
2022-12-03T07:34:17.990Z,123.30
2022-12-03T07:35:17.855Z,113.10
2022-12-03T07:36:17.847Z,115.50
2022-12-03T07:37:22.902Z,107.20
2022-12-03T07:38:18.845Z,108.90
2022-12-03T07:39:17.783Z,111.30
2022-12-03T07:40:17.837Z,100.50
2022-12-03T07:41:17.748Z,124.60
2022-12-03T07:42:17.773Z,120.00
2022-12-03T07:43:17.786Z,114.90
2022-12-03T07:44:17.771Z,108.60
2022-12-03T07:45:17.696Z,111.30
2022-12-03T07:46:17.838Z,117.50
2022-12-03T07:47:17.705Z,120.30
2022-12-03T07:48:17.690Z,98.60
2022-12-03T07:49:17.686Z,116.10
2022-12-03T07:50:17.688Z,126.00
2022-12-03T07:51:17.620Z,121.10
2022-12-03T07:52:17.709Z,120.20
2022-12-03T07:53:17.621Z,127.10
2022-12-03T07:54:17.603Z,136.10
2022-12-03T07:55:17.597Z,118.10
2022-12-03T07:56:17.595Z,133.80
2022-12-03T07:57:17.578Z,143.90
2022-12-03T07:58:17.629Z,146.30
2022-12-03T07:59:17.517Z,140.20
2022-12-03T08:00:17.504Z,126.50
2022-12-03T08:01:17.583Z,143.20
2022-12-03T08:02:21.323Z,142.90
2022-12-03T08:03:17.507Z,144.20
2022-12-03T08:04:17.497Z,154.10
2022-12-03T08:05:17.473Z,152.50
2022-12-03T08:06:17.426Z,154.80
2022-12-03T08:07:17.468Z,148.60
2022-12-03T08:08:17.472Z,144.30
2022-12-03T08:09:17.454Z,165.30
2022-12-03T08:10:17.557Z,153.30
2022-12-03T08:11:17.394Z,138.80
2022-12-03T08:12:17.382Z,163.10
2022-12-03T08:13:17.364Z,157.40
2022-12-03T08:14:17.335Z,168.30
2022-12-03T08:15:17.368Z,165.70
2022-12-03T08:16:17.434Z,158.20
2022-12-03T08:17:17.318Z,159.10
2022-12-03T08:18:17.269Z,159.40
2022-12-03T08:19:17.316Z,166.00
2022-12-03T08:20:17.254Z,180.00
2022-12-03T08:21:17.301Z,170.90
2022-12-03T08:22:17.387Z,167.90
2022-12-03T08:23:17.231Z,173.00
2022-12-03T08:24:17.239Z,178.10
2022-12-03T08:25:17.188Z,180.00
2022-12-03T08:26:17.181Z,168.00
2022-12-03T08:27:17.217Z,155.70
2022-12-03T08:28:17.285Z,169.90
2022-12-03T08:29:17.164Z,160.70
2022-12-03T08:30:17.266Z,159.50
2022-12-03T08:31:17.304Z,170.10
2022-12-03T08:32:17.212Z,161.10
2022-12-03T08:33:17.127Z,169.00
2022-12-03T08:34:17.131Z,155.30
2022-12-03T08:35:17.082Z,167.30
2022-12-03T08:36:17.085Z,179.50
2022-12-03T08:37:23.071Z,166.40
2022-12-03T08:38:17.036Z,167.70
2022-12-03T08:39:17.062Z,173.20
2022-12-03T08:40:17.101Z,145.50
2022-12-03T08:41:17.027Z,185.20
2022-12-03T08:42:16.989Z,180.40
2022-12-03T08:43:16.950Z,178.80
2022-12-03T08:44:16.950Z,176.00
2022-12-03T08:45:16.915Z,182.50
2022-12-03T08:46:17.025Z,157.80
2022-12-03T08:47:16.929Z,165.00
2022-12-03T08:48:16.899Z,175.70
2022-12-03T08:49:16.866Z,159.20
2022-12-03T08:50:16.853Z,166.50
2022-12-03T08:51:16.880Z,181.80
2022-12-03T08:52:16.979Z,175.70
2022-12-03T08:53:16.841Z,185.10
2022-12-03T08:54:16.834Z,178.60
2022-12-03T08:55:16.808Z,190.50
2022-12-03T08:56:16.792Z,180.10
2022-12-03T08:57:16.767Z,178.20
2022-12-03T08:58:16.795Z,171.60
2022-12-03T08:59:16.762Z,178.50
2022-12-03T09:00:16.717Z,177.00
2022-12-03T09:01:16.860Z,183.30
2022-12-03T09:02:16.721Z,140.70
2022-12-03T09:03:16.677Z,177.90
2022-12-03T09:04:16.783Z,185.10
2022-12-03T09:05:16.687Z,195.40
2022-12-03T09:06:16.638Z,194.70
2022-12-03T09:07:16.670Z,201.80
2022-12-03T09:08:16.682Z,169.30
2022-12-03T09:09:16.643Z,168.10
2022-12-03T09:10:16.727Z,190.00
2022-12-03T09:11:16.580Z,157.50
2022-12-03T09:12:16.604Z,176.60
2022-12-03T09:13:16.573Z,191.70
2022-12-03T09:14:18.788Z,189.10
2022-12-03T09:15:16.592Z,181.50
2022-12-03T09:16:16.613Z,171.50
2022-12-03T09:17:16.555Z,165.10
2022-12-03T09:18:16.527Z,169.50
2022-12-03T09:19:16.509Z,158.30
2022-12-03T09:20:16.467Z,182.40
2022-12-03T09:21:16.504Z,180.70
2022-12-03T09:22:16.587Z,177.60
2022-12-03T09:23:16.464Z,164.00
2022-12-03T09:24:16.451Z,175.40
2022-12-03T09:25:16.452Z,172.40
2022-12-03T09:26:16.393Z,161.50
2022-12-03T09:27:16.445Z,160.50
2022-12-03T09:28:16.490Z,168.90
2022-12-03T09:29:16.398Z,152.70
2022-12-03T09:30:16.371Z,168.80
2022-12-03T09:31:16.405Z,177.60
2022-12-03T09:32:18.605Z,172.20
2022-12-03T09:33:16.310Z,170.00
2022-12-03T09:34:16.417Z,178.40
2022-12-03T09:35:16.346Z,161.60
2022-12-03T09:36:16.299Z,172.30
2022-12-03T09:37:16.272Z,178.20
2022-12-03T09:38:16.230Z,163.70
2022-12-03T09:39:16.280Z,181.80
2022-12-03T09:40:16.289Z,177.60
2022-12-03T09:41:16.264Z,177.90
2022-12-03T09:42:16.213Z,184.30
2022-12-03T09:43:16.184Z,177.20
2022-12-03T09:44:18.173Z,173.90
2022-12-03T09:45:16.240Z,179.00
2022-12-03T09:46:16.191Z,175.80
2022-12-03T09:47:16.189Z,176.70
2022-12-03T09:48:16.107Z,180.70
2022-12-03T09:49:16.385Z,174.70
2022-12-03T09:50:16.120Z,174.30
2022-12-03T09:51:16.989Z,173.90
2022-12-03T09:52:16.097Z,168.10
2022-12-03T09:53:16.091Z,172.20
2022-12-03T09:54:16.053Z,180.70
2022-12-03T09:55:16.036Z,154.60
2022-12-03T09:56:16.013Z,178.20
2022-12-03T09:57:16.033Z,169.90
2022-12-03T09:58:16.143Z,154.20
2022-12-03T09:59:16.016Z,162.80
2022-12-03T10:00:15.961Z,158.70
2022-12-03T10:01:16.152Z,166.40
2022-12-03T10:02:15.987Z,173.40
2022-12-03T10:03:15.956Z,131.70
2022-12-03T10:04:16.143Z,166.10
2022-12-03T10:05:15.911Z,181.20
2022-12-03T10:06:15.870Z,174.60
2022-12-03T10:07:15.905Z,160.20
2022-12-03T10:08:15.901Z,153.50
2022-12-03T10:09:15.897Z,154.90
2022-12-03T10:10:15.883Z,140.50
2022-12-03T10:11:15.810Z,155.40
2022-12-03T10:12:15.841Z,130.70
2022-12-03T10:13:18.766Z,159.10
2022-12-03T10:14:16.824Z,141.70
2022-12-03T10:15:15.894Z,144.80
2022-12-03T10:16:16.012Z,143.80
2022-12-03T10:17:15.813Z,148.30
2022-12-03T10:18:15.769Z,153.30
2022-12-03T10:19:15.709Z,139.40
2022-12-03T10:20:15.800Z,193.40
2022-12-03T10:21:15.709Z,178.30
2022-12-03T10:22:15.711Z,174.30
2022-12-03T10:23:15.672Z,162.50
2022-12-03T10:24:15.652Z,154.10
2022-12-03T10:25:15.635Z,312.40
2022-12-03T10:26:15.594Z,448.40
2022-12-03T10:27:15.611Z,363.70
2022-12-03T10:28:15.595Z,500.70
2022-12-03T10:29:15.591Z,182.90
2022-12-03T10:30:15.562Z,188.10
2022-12-03T10:31:15.616Z,148.20
2022-12-03T10:32:15.546Z,141.80
2022-12-03T10:33:18.869Z,136.90
2022-12-03T10:34:15.506Z,137.10
2022-12-03T10:35:15.503Z,133.20
2022-12-03T10:36:15.457Z,122.20
2022-12-03T10:37:15.481Z,146.20
2022-12-03T10:38:15.457Z,120.50
2022-12-03T10:39:15.448Z,121.40
2022-12-03T10:40:15.437Z,133.60
2022-12-03T10:41:15.444Z,117.70
2022-12-03T10:42:15.414Z,139.90
2022-12-03T10:43:15.399Z,140.80
2022-12-03T10:44:15.396Z,132.10
2022-12-03T10:45:15.378Z,143.90
2022-12-03T10:46:15.509Z,131.10
2022-12-03T10:47:15.471Z,131.00
2022-12-03T10:48:15.303Z,143.00
2022-12-03T10:49:15.355Z,138.40
2022-12-03T10:50:15.303Z,147.20
2022-12-03T10:51:15.289Z,148.20
2022-12-03T10:52:15.396Z,130.10
2022-12-03T10:53:15.298Z,143.10
2022-12-03T10:54:15.223Z,141.70
2022-12-03T10:55:15.272Z,135.60
2022-12-03T10:56:15.225Z,132.40
2022-12-03T10:57:15.210Z,133.40
2022-12-03T10:58:15.291Z,125.40
2022-12-03T10:59:15.196Z,130.70
2022-12-03T11:00:15.140Z,121.00
2022-12-03T11:01:15.196Z,134.80
2022-12-03T11:02:15.162Z,132.10
2022-12-03T11:03:15.133Z,129.00
2022-12-03T11:04:15.257Z,121.60
2022-12-03T11:05:15.112Z,121.90
2022-12-03T11:06:15.072Z,124.60
2022-12-03T11:07:15.092Z,121.40
2022-12-03T11:08:36.085Z,110.80
2022-12-03T11:09:15.049Z,122.80
2022-12-03T11:10:15.052Z,120.50
2022-12-03T11:11:15.029Z,126.30
2022-12-03T11:12:15.005Z,111.40
2022-12-03T11:13:14.973Z,119.40
2022-12-03T11:14:21.275Z,121.90
2022-12-03T11:15:16.061Z,113.60
2022-12-03T11:16:15.005Z,116.50
2022-12-03T11:17:14.951Z,123.80
2022-12-03T11:18:14.922Z,122.70
2022-12-03T11:19:14.923Z,118.60
2022-12-03T11:20:20.938Z,122.00
2022-12-03T11:21:15.907Z,108.60
2022-12-03T11:22:14.901Z,113.20
2022-12-03T11:23:14.846Z,99.70
2022-12-03T11:24:14.871Z,112.20
2022-12-03T11:25:14.842Z,106.40
2022-12-03T11:26:18.789Z,121.20
2022-12-03T11:27:14.830Z,115.20
2022-12-03T11:28:14.813Z,112.50
2022-12-03T11:29:14.792Z,105.70
2022-12-03T11:30:14.764Z,109.40
2022-12-03T11:31:14.809Z,110.80
2022-12-03T11:32:14.747Z,113.00
2022-12-03T11:33:14.748Z,105.30
2022-12-03T11:34:14.734Z,101.50
2022-12-03T11:35:14.697Z,107.50
2022-12-03T11:36:14.714Z,114.20
2022-12-03T11:37:14.685Z,115.10
2022-12-03T11:38:14.659Z,101.10
2022-12-03T11:39:14.704Z,104.40
2022-12-03T11:40:14.629Z,110.30
2022-12-03T11:41:14.608Z,107.00
2022-12-03T11:42:14.638Z,103.70
2022-12-03T11:43:14.614Z,113.40
2022-12-03T11:44:14.599Z,110.90
2022-12-03T11:45:14.593Z,99.90
2022-12-03T11:46:14.611Z,99.10
2022-12-03T11:47:14.530Z,106.40
2022-12-03T11:48:14.564Z,104.60
2022-12-03T11:49:14.548Z,99.20
2022-12-03T11:50:14.505Z,108.20
2022-12-03T11:51:14.633Z,97.00
2022-12-03T11:52:14.480Z,102.30
2022-12-03T11:53:14.454Z,110.30
2022-12-03T11:54:14.478Z,106.10
2022-12-03T11:55:14.433Z,91.10
2022-12-03T11:56:14.450Z,103.20
2022-12-03T11:57:14.546Z,103.30
2022-12-03T11:58:14.400Z,106.00
2022-12-03T11:59:14.380Z,108.00
2022-12-03T12:00:14.422Z,102.30
2022-12-03T12:01:14.401Z,102.20
2022-12-03T12:02:17.199Z,98.40
2022-12-03T12:03:15.868Z,100.60
2022-12-03T12:04:15.729Z,106.10
2022-12-03T12:05:16.536Z,95.40
2022-12-03T12:06:14.430Z,99.00
2022-12-03T12:07:14.336Z,105.20
2022-12-03T12:08:14.449Z,99.20
2022-12-03T12:09:14.312Z,92.20
2022-12-03T12:10:14.267Z,93.40
2022-12-03T12:11:14.254Z,98.20
2022-12-03T12:12:14.235Z,92.90
2022-12-03T12:13:14.222Z,99.10
2022-12-03T12:14:14.244Z,96.30
2022-12-03T12:15:14.244Z,98.50
2022-12-03T12:16:14.199Z,97.80
2022-12-03T12:17:14.160Z,93.90
2022-12-03T12:18:14.163Z,96.90
2022-12-03T12:19:14.129Z,89.40
2022-12-03T12:20:14.148Z,85.90
2022-12-03T12:21:14.265Z,100.60
2022-12-03T12:22:14.099Z,89.70
2022-12-03T12:23:14.107Z,89.80
2022-12-03T12:24:14.061Z,89.50
2022-12-03T12:25:14.049Z,89.30
2022-12-03T12:26:14.056Z,89.90
2022-12-03T12:27:14.059Z,78.70
2022-12-03T12:28:14.026Z,94.70
2022-12-03T12:29:14.027Z,98.50
2022-12-03T12:30:13.994Z,103.90
2022-12-03T12:31:14.018Z,87.10
2022-12-03T12:32:13.987Z,86.70
2022-12-03T12:33:14.101Z,93.90
2022-12-03T12:34:13.931Z,98.70